GER8757 EDHL-LSZB
Flight info
| Callsign | GER8757 |
|---|---|
| Flight time | 1h 13m |
| Altitude | 37000 |
| Route | HAM2A HAM L23 ESTAD N850 WRB DCT XAROL DCT BOMBI DCT GIGET DCT ABUKA DCT KRH DCT NATOR N850 TRA Z669 ROTOS ROTO3M |
| Aircraft | E190/M-SDE3GILORVW/S |
Departure
| Time | 2026-05-06 09:40 |
|---|---|
| Airport | Lübeck Blankensee Airport (EDHL) |
Arrival
| Time | 2026-05-06 10:53 |
|---|---|
| Airport | Bern Airport (LSZB) |
| Time | Latitude | Longitude | Altitude | Speed | Heading |
|---|---|---|---|---|---|
| 2026-05-06 09:23 | 53.80461 | 10.70250 | 63 ft | 0 kts | 324° |
| 2026-05-06 09:33 | 53.80452 | 10.70261 | 63 ft | 2 kts | 324° |
| 2026-05-06 09:33 | 53.80440 | 10.70275 | 63 ft | 2 kts | 324° |
| 2026-05-06 09:33 | 53.80432 | 10.70284 | 63 ft | 2 kts | 325° |
| 2026-05-06 09:34 | 53.80423 | 10.70305 | 63 ft | 2 kts | 282° |
| 2026-05-06 09:34 | 53.80423 | 10.70324 | 63 ft | 0 kts | 256° |
| 2026-05-06 09:34 | 53.80425 | 10.70336 | 63 ft | 1 kts | 251° |
| 2026-05-06 09:34 | 53.80426 | 10.70337 | 63 ft | 0 kts | 251° |
| 2026-05-06 09:36 | 53.80425 | 10.70331 | 63 ft | 2 kts | 251° |
| 2026-05-06 09:36 | 53.80409 | 10.70251 | 63 ft | 10 kts | 252° |
| 2026-05-06 09:37 | 53.80388 | 10.70144 | 63 ft | 7 kts | 241° |
| 2026-05-06 09:37 | 53.80361 | 10.70123 | 63 ft | 0 kts | 175° |
| 2026-05-06 09:38 | 53.80358 | 10.70123 | 63 ft | 1 kts | 175° |
| 2026-05-06 09:38 | 53.80331 | 10.70129 | 63 ft | 6 kts | 170° |
| 2026-05-06 09:38 | 53.80270 | 10.70149 | 63 ft | 11 kts | 168° |
| 2026-05-06 09:39 | 53.80209 | 10.70217 | 63 ft | 11 kts | 89° |
| 2026-05-06 09:39 | 53.80217 | 10.70279 | 63 ft | 0 kts | 72° |
| 2026-05-06 09:39 | 53.80276 | 10.70582 | 63 ft | 65 kts | 72° |
| 2026-05-06 09:39 | 53.80491 | 10.71704 | 63 ft | 133 kts | 73° |
| 2026-05-06 09:40 | 53.80817 | 10.73418 | 287 ft | 165 kts | 69° |
| 2026-05-06 09:40 | 53.81184 | 10.75295 | 1141 ft | 171 kts | 72° |
| 2026-05-06 09:40 | 53.81832 | 10.78731 | 2922 ft | 172 kts | 71° |
| 2026-05-06 09:41 | 53.82238 | 10.80843 | 3436 ft | 206 kts | 71° |
| 2026-05-06 09:41 | 53.82652 | 10.83286 | 4205 ft | 229 kts | 84° |
| 2026-05-06 09:41 | 53.82243 | 10.85875 | 5199 ft | 245 kts | 123° |
| 2026-05-06 09:41 | 53.80876 | 10.87544 | 6334 ft | 256 kts | 162° |
| 2026-05-06 09:42 | 53.79156 | 10.88097 | 7503 ft | 257 kts | 168° |
| 2026-05-06 09:42 | 53.77401 | 10.88092 | 8544 ft | 262 kts | 198° |
| 2026-05-06 09:42 | 53.75903 | 10.86358 | 9457 ft | 270 kts | 233° |
| 2026-05-06 09:42 | 53.75182 | 10.83427 | 10143 ft | 284 kts | 261° |
| 2026-05-06 09:43 | 53.74582 | 10.80194 | 10845 ft | 299 kts | 237° |
| 2026-05-06 09:43 | 53.73076 | 10.77774 | 11570 ft | 311 kts | 210° |
| 2026-05-06 09:43 | 53.71098 | 10.76138 | 12326 ft | 322 kts | 209° |
| 2026-05-06 09:43 | 53.69075 | 10.74485 | 13142 ft | 330 kts | 204° |
| 2026-05-06 09:44 | 53.67372 | 10.73317 | 13884 ft | 334 kts | 202° |
| 2026-05-06 09:44 | 53.65202 | 10.71955 | 14870 ft | 336 kts | 201° |
| 2026-05-06 09:44 | 53.63044 | 10.70662 | 15879 ft | 335 kts | 200° |
| 2026-05-06 09:44 | 53.60835 | 10.69364 | 16879 ft | 335 kts | 200° |
| 2026-05-06 09:45 | 53.58643 | 10.68088 | 17785 ft | 337 kts | 200° |
| 2026-05-06 09:45 | 53.56456 | 10.66819 | 18622 ft | 339 kts | 200° |
| 2026-05-06 09:45 | 53.54201 | 10.65514 | 19446 ft | 343 kts | 200° |
| 2026-05-06 09:45 | 53.51948 | 10.64213 | 20162 ft | 349 kts | 199° |
| 2026-05-06 09:46 | 53.50386 | 10.63312 | 20688 ft | 352 kts | 199° |
| 2026-05-06 09:47 | 53.39613 | 10.57116 | 23850 ft | 373 kts | 199° |
| 2026-05-06 09:47 | 53.37165 | 10.55712 | 23932 ft | 377 kts | 199° |
| 2026-05-06 09:47 | 53.34682 | 10.54290 | 23930 ft | 375 kts | 200° |
| 2026-05-06 09:47 | 53.32241 | 10.52894 | 23983 ft | 381 kts | 199° |
| 2026-05-06 09:48 | 53.29781 | 10.51489 | 24487 ft | 389 kts | 199° |
| 2026-05-06 09:48 | 53.27243 | 10.50041 | 25320 ft | 388 kts | 199° |
| 2026-05-06 09:48 | 53.24705 | 10.48595 | 26217 ft | 386 kts | 199° |
| 2026-05-06 09:48 | 53.22166 | 10.47150 | 26997 ft | 387 kts | 198° |
| 2026-05-06 09:49 | 53.19606 | 10.45696 | 27636 ft | 391 kts | 198° |
| 2026-05-06 09:49 | 53.17038 | 10.44238 | 28207 ft | 396 kts | 198° |
| 2026-05-06 09:49 | 53.14433 | 10.42761 | 28799 ft | 401 kts | 198° |
| 2026-05-06 09:49 | 53.11798 | 10.41269 | 29391 ft | 405 kts | 197° |
| 2026-05-06 09:50 | 53.09108 | 10.39749 | 30010 ft | 408 kts | 197° |
| 2026-05-06 09:50 | 53.06436 | 10.38240 | 30583 ft | 412 kts | 197° |
| 2026-05-06 09:50 | 53.03719 | 10.36708 | 31122 ft | 416 kts | 197° |
| 2026-05-06 09:50 | 53.00992 | 10.35173 | 31631 ft | 419 kts | 197° |
| 2026-05-06 09:51 | 52.98202 | 10.33604 | 32233 ft | 420 kts | 196° |
| 2026-05-06 09:51 | 52.95436 | 10.32050 | 32891 ft | 418 kts | 197° |
| 2026-05-06 09:51 | 52.92653 | 10.30489 | 33604 ft | 415 kts | 197° |
| 2026-05-06 09:51 | 52.89940 | 10.28969 | 34290 ft | 412 kts | 197° |
| 2026-05-06 09:52 | 52.87253 | 10.27466 | 34894 ft | 408 kts | 197° |
| 2026-05-06 09:52 | 52.84537 | 10.25949 | 35405 ft | 405 kts | 197° |
| 2026-05-06 09:52 | 52.81835 | 10.24442 | 35863 ft | 403 kts | 197° |
| 2026-05-06 09:52 | 52.79252 | 10.23003 | 36255 ft | 402 kts | 198° |
| 2026-05-06 09:53 | 52.76536 | 10.21492 | 36625 ft | 402 kts | 198° |
| 2026-05-06 09:53 | 52.73916 | 10.20035 | 36865 ft | 402 kts | 198° |
| 2026-05-06 09:53 | 52.71227 | 10.18542 | 36806 ft | 414 kts | 198° |
| 2026-05-06 09:53 | 52.68486 | 10.17023 | 36803 ft | 425 kts | 198° |
| 2026-05-06 09:54 | 52.62820 | 10.13888 | 36798 ft | 432 kts | 198° |
| 2026-05-06 09:54 | 52.57123 | 10.10745 | 36791 ft | 431 kts | 198° |
| 2026-05-06 09:55 | 52.51475 | 10.07638 | 36779 ft | 430 kts | 198° |
| 2026-05-06 09:55 | 52.45828 | 10.04539 | 36783 ft | 430 kts | 198° |
| 2026-05-06 09:56 | 52.40185 | 10.01451 | 36777 ft | 430 kts | 198° |
| 2026-05-06 09:56 | 52.34514 | 9.98357 | 36774 ft | 429 kts | 199° |
| 2026-05-06 09:57 | 52.28841 | 9.95270 | 36771 ft | 431 kts | 199° |
| 2026-05-06 09:57 | 52.23170 | 9.92192 | 36771 ft | 430 kts | 199° |
| 2026-05-06 09:58 | 52.17490 | 9.89117 | 36758 ft | 430 kts | 199° |
| 2026-05-06 09:58 | 52.11820 | 9.86055 | 36756 ft | 431 kts | 199° |
| 2026-05-06 09:59 | 52.06173 | 9.83015 | 36757 ft | 431 kts | 199° |
| 2026-05-06 09:59 | 52.00460 | 9.79948 | 36749 ft | 432 kts | 199° |
| 2026-05-06 10:00 | 51.94781 | 9.76906 | 36751 ft | 431 kts | 199° |
| 2026-05-06 10:00 | 51.89133 | 9.73889 | 36751 ft | 430 kts | 199° |
| 2026-05-06 10:01 | 51.83430 | 9.70852 | 36752 ft | 431 kts | 199° |
| 2026-05-06 10:01 | 51.77739 | 9.67828 | 36750 ft | 431 kts | 199° |
| 2026-05-06 10:02 | 51.72063 | 9.64821 | 36748 ft | 431 kts | 199° |
| 2026-05-06 10:02 | 51.66394 | 9.61825 | 36746 ft | 430 kts | 199° |
| 2026-05-06 10:03 | 51.60704 | 9.58826 | 36745 ft | 430 kts | 199° |
| 2026-05-06 10:03 | 51.55064 | 9.55860 | 36743 ft | 429 kts | 199° |
| 2026-05-06 10:04 | 51.49405 | 9.52894 | 36750 ft | 429 kts | 199° |
| 2026-05-06 10:04 | 51.43756 | 9.49940 | 36757 ft | 429 kts | 199° |
| 2026-05-06 10:05 | 51.38090 | 9.46985 | 36749 ft | 429 kts | 199° |
| 2026-05-06 10:05 | 51.32431 | 9.44040 | 36756 ft | 429 kts | 199° |
| 2026-05-06 10:06 | 51.26744 | 9.41090 | 36753 ft | 428 kts | 199° |
| 2026-05-06 10:06 | 51.21069 | 9.38153 | 36748 ft | 429 kts | 199° |
| 2026-05-06 10:07 | 51.15420 | 9.35237 | 36749 ft | 427 kts | 199° |
| 2026-05-06 10:07 | 51.09769 | 9.32328 | 36743 ft | 428 kts | 198° |
| 2026-05-06 10:08 | 51.04116 | 9.29424 | 36742 ft | 426 kts | 198° |
| 2026-05-06 10:08 | 50.98469 | 9.26531 | 36740 ft | 427 kts | 198° |
| 2026-05-06 10:09 | 50.92841 | 9.23656 | 36740 ft | 427 kts | 198° |
| 2026-05-06 10:09 | 50.87184 | 9.20774 | 36746 ft | 427 kts | 198° |
| 2026-05-06 10:10 | 50.81538 | 9.17903 | 36749 ft | 428 kts | 198° |
| 2026-05-06 10:10 | 50.75844 | 9.15016 | 36746 ft | 428 kts | 198° |
| 2026-05-06 10:11 | 50.70197 | 9.12161 | 36751 ft | 427 kts | 198° |
| 2026-05-06 10:11 | 50.64524 | 9.09299 | 36751 ft | 426 kts | 199° |
| 2026-05-06 10:12 | 50.58882 | 9.06461 | 36756 ft | 426 kts | 199° |
| 2026-05-06 10:12 | 50.53258 | 9.03638 | 36762 ft | 426 kts | 199° |
| 2026-05-06 10:13 | 50.47593 | 9.00802 | 36767 ft | 427 kts | 199° |
| 2026-05-06 10:13 | 50.41930 | 8.97973 | 36773 ft | 428 kts | 198° |
| 2026-05-06 10:14 | 50.36298 | 8.95168 | 36775 ft | 428 kts | 199° |
| 2026-05-06 10:14 | 50.30607 | 8.92340 | 36774 ft | 429 kts | 199° |
| 2026-05-06 10:15 | 50.24923 | 8.89523 | 36768 ft | 428 kts | 199° |
| 2026-05-06 10:15 | 50.19265 | 8.86726 | 36764 ft | 428 kts | 199° |
| 2026-05-06 10:16 | 50.13591 | 8.83927 | 36765 ft | 427 kts | 199° |
| 2026-05-06 10:16 | 50.07908 | 8.81131 | 36768 ft | 428 kts | 199° |
| 2026-05-06 10:17 | 50.02070 | 8.79294 | 36771 ft | 428 kts | 189° |
| 2026-05-06 10:17 | 49.96162 | 8.78051 | 36767 ft | 429 kts | 189° |
| 2026-05-06 10:18 | 49.90236 | 8.76821 | 36766 ft | 429 kts | 189° |
| 2026-05-06 10:18 | 49.84274 | 8.75587 | 36770 ft | 429 kts | 189° |
| 2026-05-06 10:19 | 49.78360 | 8.74366 | 36771 ft | 429 kts | 189° |
| 2026-05-06 10:19 | 49.72464 | 8.73152 | 36779 ft | 426 kts | 189° |
| 2026-05-06 10:20 | 49.66611 | 8.71960 | 36779 ft | 428 kts | 189° |
| 2026-05-06 10:20 | 49.60697 | 8.70766 | 36785 ft | 427 kts | 189° |
| 2026-05-06 10:21 | 49.54825 | 8.69584 | 36787 ft | 426 kts | 189° |
| 2026-05-06 10:21 | 49.48992 | 8.68412 | 36784 ft | 425 kts | 189° |
| 2026-05-06 10:22 | 49.43135 | 8.67230 | 36779 ft | 425 kts | 189° |
| 2026-05-06 10:22 | 49.37278 | 8.66045 | 36781 ft | 424 kts | 189° |
| 2026-05-06 10:23 | 49.31454 | 8.64869 | 36785 ft | 423 kts | 190° |
| 2026-05-06 10:23 | 49.25609 | 8.63691 | 36779 ft | 423 kts | 189° |
| 2026-05-06 10:24 | 49.19790 | 8.62522 | 36780 ft | 424 kts | 189° |
| 2026-05-06 10:24 | 49.13953 | 8.61352 | 36783 ft | 423 kts | 190° |
| 2026-05-06 10:25 | 49.08150 | 8.60191 | 36778 ft | 422 kts | 189° |
| 2026-05-06 10:25 | 49.02329 | 8.59029 | 36779 ft | 423 kts | 189° |
| 2026-05-06 10:26 | 48.96547 | 8.57588 | 36782 ft | 412 kts | 195° |
| 2026-05-06 10:26 | 48.91058 | 8.55760 | 36779 ft | 400 kts | 194° |
| 2026-05-06 10:27 | 48.85624 | 8.53997 | 36789 ft | 402 kts | 194° |
| 2026-05-06 10:27 | 48.80160 | 8.52233 | 36786 ft | 402 kts | 194° |
| 2026-05-06 10:28 | 48.74697 | 8.50474 | 36782 ft | 401 kts | 194° |
| 2026-05-06 10:28 | 48.69224 | 8.48715 | 36789 ft | 401 kts | 194° |
| 2026-05-06 10:29 | 48.63770 | 8.46966 | 36782 ft | 402 kts | 194° |
| 2026-05-06 10:29 | 48.58363 | 8.45237 | 36785 ft | 399 kts | 194° |
| 2026-05-06 10:30 | 48.52701 | 8.43429 | 36779 ft | 398 kts | 194° |
| 2026-05-06 10:30 | 48.49981 | 8.42562 | 36220 ft | 412 kts | 194° |
| 2026-05-06 10:30 | 48.47168 | 8.41667 | 35051 ft | 419 kts | 194° |
| 2026-05-06 10:31 | 48.44343 | 8.40769 | 33972 ft | 422 kts | 194° |
| 2026-05-06 10:31 | 48.41479 | 8.39858 | 33108 ft | 419 kts | 194° |
| 2026-05-06 10:31 | 48.38697 | 8.38977 | 32545 ft | 407 kts | 193° |
| 2026-05-06 10:31 | 48.35976 | 8.38115 | 32106 ft | 395 kts | 193° |
| 2026-05-06 10:32 | 48.33299 | 8.37267 | 31661 ft | 394 kts | 193° |
| 2026-05-06 10:32 | 48.30606 | 8.36416 | 31211 ft | 395 kts | 193° |
| 2026-05-06 10:32 | 48.27951 | 8.35577 | 30772 ft | 395 kts | 193° |
| 2026-05-06 10:32 | 48.25269 | 8.34731 | 30310 ft | 393 kts | 192° |
| 2026-05-06 10:33 | 48.22595 | 8.33888 | 29884 ft | 391 kts | 192° |
| 2026-05-06 10:33 | 48.20865 | 8.33343 | 29604 ft | 389 kts | 192° |
| 2026-05-06 10:33 | 48.17361 | 8.32502 | 29038 ft | 391 kts | 184° |
| 2026-05-06 10:33 | 48.14681 | 8.32665 | 28597 ft | 391 kts | 174° |
| 2026-05-06 10:34 | 48.12009 | 8.33322 | 28157 ft | 390 kts | 172° |
| 2026-05-06 10:34 | 48.09341 | 8.33980 | 27734 ft | 388 kts | 172° |
| 2026-05-06 10:34 | 48.06685 | 8.34628 | 27305 ft | 385 kts | 172° |
| 2026-05-06 10:34 | 48.04020 | 8.35275 | 26876 ft | 384 kts | 172° |
| 2026-05-06 10:35 | 48.01400 | 8.35909 | 26450 ft | 382 kts | 172° |
| 2026-05-06 10:35 | 47.98788 | 8.36541 | 26039 ft | 383 kts | 172° |
| 2026-05-06 10:35 | 47.96182 | 8.37171 | 25622 ft | 381 kts | 172° |
| 2026-05-06 10:35 | 47.93547 | 8.37806 | 25195 ft | 378 kts | 172° |
| 2026-05-06 10:36 | 47.90985 | 8.38424 | 24782 ft | 377 kts | 172° |
| 2026-05-06 10:36 | 47.88417 | 8.39042 | 24381 ft | 376 kts | 171° |
| 2026-05-06 10:36 | 47.85851 | 8.39660 | 23972 ft | 374 kts | 171° |
| 2026-05-06 10:36 | 47.83252 | 8.40282 | 23556 ft | 373 kts | 171° |
| 2026-05-06 10:37 | 47.80693 | 8.40894 | 23147 ft | 372 kts | 171° |
| 2026-05-06 10:37 | 47.78178 | 8.41495 | 22743 ft | 369 kts | 172° |
| 2026-05-06 10:37 | 47.75633 | 8.42103 | 22341 ft | 367 kts | 171° |
| 2026-05-06 10:37 | 47.73117 | 8.42703 | 21933 ft | 365 kts | 171° |
| 2026-05-06 10:38 | 47.70623 | 8.43076 | 21521 ft | 363 kts | 185° |
| 2026-05-06 10:38 | 47.68217 | 8.42002 | 21129 ft | 363 kts | 208° |
| 2026-05-06 10:38 | 47.66260 | 8.39701 | 20681 ft | 362 kts | 221° |
| 2026-05-06 10:38 | 47.64457 | 8.37177 | 20265 ft | 358 kts | 222° |
| 2026-05-06 10:39 | 47.62656 | 8.34612 | 19870 ft | 358 kts | 222° |
| 2026-05-06 10:39 | 47.60857 | 8.32035 | 19470 ft | 357 kts | 222° |
| 2026-05-06 10:39 | 47.59099 | 8.29511 | 19080 ft | 354 kts | 222° |
| 2026-05-06 10:39 | 47.57336 | 8.26980 | 18697 ft | 354 kts | 223° |
| 2026-05-06 10:40 | 47.55559 | 8.24432 | 18301 ft | 352 kts | 223° |
| 2026-05-06 10:40 | 47.53814 | 8.21932 | 17917 ft | 352 kts | 223° |
| 2026-05-06 10:40 | 47.52057 | 8.19416 | 17531 ft | 349 kts | 223° |
| 2026-05-06 10:40 | 47.50318 | 8.16928 | 17149 ft | 348 kts | 223° |
| 2026-05-06 10:41 | 47.48586 | 8.14453 | 16772 ft | 348 kts | 223° |
| 2026-05-06 10:41 | 47.46855 | 8.11982 | 16398 ft | 345 kts | 223° |
| 2026-05-06 10:41 | 47.45130 | 8.09522 | 16012 ft | 345 kts | 223° |
| 2026-05-06 10:41 | 47.43411 | 8.07072 | 15635 ft | 342 kts | 223° |
| 2026-05-06 10:42 | 47.41699 | 8.04636 | 15260 ft | 342 kts | 223° |
| 2026-05-06 10:42 | 47.40000 | 8.02218 | 14883 ft | 340 kts | 223° |
| 2026-05-06 10:42 | 47.38289 | 7.99788 | 14510 ft | 340 kts | 224° |
| 2026-05-06 10:42 | 47.36602 | 7.97394 | 14130 ft | 337 kts | 224° |
| 2026-05-06 10:43 | 47.34919 | 7.95006 | 13759 ft | 334 kts | 224° |
| 2026-05-06 10:43 | 47.33268 | 7.92667 | 13394 ft | 332 kts | 224° |
| 2026-05-06 10:43 | 47.31605 | 7.90314 | 13035 ft | 330 kts | 224° |
| 2026-05-06 10:44 | 47.28314 | 7.85661 | 12311 ft | 326 kts | 224° |
| 2026-05-06 10:44 | 47.26688 | 7.83365 | 11951 ft | 325 kts | 224° |
| 2026-05-06 10:44 | 47.25059 | 7.81069 | 11592 ft | 321 kts | 224° |
| 2026-05-06 10:44 | 47.23474 | 7.78835 | 11240 ft | 313 kts | 224° |
| 2026-05-06 10:45 | 47.21907 | 7.76629 | 10897 ft | 306 kts | 224° |
| 2026-05-06 10:45 | 47.20389 | 7.74494 | 10559 ft | 298 kts | 224° |
| 2026-05-06 10:45 | 47.19415 | 7.73115 | 10352 ft | 292 kts | 227° |
| 2026-05-06 10:45 | 47.17930 | 7.69879 | 9938 ft | 282 kts | 240° |
| 2026-05-06 10:46 | 47.16944 | 7.67429 | 9615 ft | 277 kts | 240° |
| 2026-05-06 10:46 | 47.16619 | 7.66622 | 9512 ft | 275 kts | 240° |
| 2026-05-06 10:46 | 47.15014 | 7.62635 | 9014 ft | 273 kts | 240° |
| 2026-05-06 10:46 | 47.14043 | 7.60226 | 8710 ft | 272 kts | 240° |
| 2026-05-06 10:47 | 47.13087 | 7.57854 | 8411 ft | 271 kts | 240° |
| 2026-05-06 10:47 | 47.12346 | 7.55344 | 8137 ft | 269 kts | 256° |
| 2026-05-06 10:47 | 47.11919 | 7.52684 | 7878 ft | 270 kts | 257° |
| 2026-05-06 10:47 | 47.11494 | 7.50005 | 7583 ft | 268 kts | 257° |
| 2026-05-06 10:48 | 47.11075 | 7.47356 | 7289 ft | 267 kts | 257° |
| 2026-05-06 10:48 | 47.10652 | 7.44688 | 6993 ft | 266 kts | 257° |
| 2026-05-06 10:48 | 47.10237 | 7.42072 | 6721 ft | 259 kts | 257° |
| 2026-05-06 10:48 | 47.09837 | 7.39558 | 6444 ft | 250 kts | 257° |
| 2026-05-06 10:49 | 47.09301 | 7.37190 | 6165 ft | 241 kts | 236° |
| 2026-05-06 10:49 | 47.08076 | 7.35635 | 5971 ft | 231 kts | 214° |
| 2026-05-06 10:49 | 47.06731 | 7.34442 | 5723 ft | 225 kts | 212° |
| 2026-05-06 10:49 | 47.05255 | 7.33780 | 5477 ft | 224 kts | 176° |
| 2026-05-06 10:50 | 47.03840 | 7.34643 | 5230 ft | 229 kts | 144° |
| 2026-05-06 10:50 | 47.02577 | 7.36120 | 4940 ft | 231 kts | 143° |
| 2026-05-06 10:50 | 47.01357 | 7.37584 | 4669 ft | 229 kts | 142° |
| 2026-05-06 10:50 | 47.00120 | 7.39083 | 4360 ft | 229 kts | 142° |
| 2026-05-06 10:51 | 46.98908 | 7.40561 | 4047 ft | 222 kts | 141° |
| 2026-05-06 10:51 | 46.97777 | 7.41941 | 3680 ft | 202 kts | 141° |
| 2026-05-06 10:51 | 46.96730 | 7.43220 | 3301 ft | 186 kts | 141° |
| 2026-05-06 10:51 | 46.95811 | 7.44342 | 3013 ft | 167 kts | 141° |
| 2026-05-06 10:52 | 46.94945 | 7.45399 | 2680 ft | 159 kts | 141° |
| 2026-05-06 10:52 | 46.94115 | 7.46411 | 2394 ft | 151 kts | 141° |
| 2026-05-06 10:52 | 46.93320 | 7.47383 | 2128 ft | 146 kts | 141° |
| 2026-05-06 10:52 | 46.92542 | 7.48331 | 1896 ft | 145 kts | 141° |
| 2026-05-06 10:53 | 46.91775 | 7.49277 | 1730 ft | 141 kts | 141° |
| 2026-05-06 10:53 | 46.91142 | 7.50045 | 1680 ft | 73 kts | 140° |
| 2026-05-06 10:53 | 46.90953 | 7.50274 | 1680 ft | 12 kts | 139° |
| 2026-05-06 10:53 | 46.90934 | 7.50298 | 1680 ft | 4 kts | 139° |
| 2026-05-06 10:54 | 46.90916 | 7.50357 | 1680 ft | 4 kts | 123° |
| 2026-05-06 10:54 | 46.90910 | 7.50319 | 1680 ft | 10 kts | 324° |
| 2026-05-06 10:54 | 46.90975 | 7.50248 | 1680 ft | 12 kts | 319° |
| 2026-05-06 10:54 | 46.91055 | 7.50151 | 1680 ft | 17 kts | 320° |
| 2026-05-06 10:55 | 46.91156 | 7.50028 | 1680 ft | 19 kts | 320° |
| 2026-05-06 10:55 | 46.91247 | 7.49950 | 1680 ft | 8 kts | 35° |
| 2026-05-06 10:55 | 46.91282 | 7.50011 | 1680 ft | 7 kts | 60° |
| 2026-05-06 10:55 | 46.91299 | 7.50060 | 1680 ft | 6 kts | 63° |
| 2026-05-06 10:56 | 46.91307 | 7.50092 | 1680 ft | 0 kts | 86° |